createdAt,value
2017-08-05T00:00:21.760Z,1009.71
2017-08-05T00:01:02.650Z,1009.72
2017-08-05T00:01:43.529Z,1009.7
2017-08-05T00:02:24.401Z,1009.73
2017-08-05T00:03:05.263Z,1009.75
2017-08-05T00:03:46.162Z,1009.73
2017-08-05T00:04:27.040Z,1009.73
2017-08-05T00:05:07.925Z,1009.72
2017-08-05T00:05:48.841Z,1009.7
2017-08-05T00:06:29.733Z,1009.73
2017-08-05T00:07:10.602Z,1009.72
2017-08-05T00:07:51.479Z,1009.69
2017-08-05T00:08:32.384Z,1009.69
2017-08-05T00:09:13.270Z,1009.69
2017-08-05T00:09:54.144Z,1009.7
2017-08-05T00:10:35.024Z,1009.73
2017-08-05T00:11:15.891Z,1009.73
2017-08-05T00:11:56.803Z,1009.74
2017-08-05T00:12:37.683Z,1009.72
2017-08-05T00:13:18.539Z,1009.7
2017-08-05T00:13:59.423Z,1009.65
2017-08-05T00:14:40.308Z,1009.71
2017-08-05T00:15:21.201Z,1009.74
2017-08-05T00:16:02.100Z,1009.71
2017-08-05T00:16:42.995Z,1009.74
2017-08-05T00:17:23.885Z,1009.74
2017-08-05T00:18:04.771Z,1009.74
2017-08-05T00:18:45.708Z,1009.72
2017-08-05T00:19:26.602Z,1009.74
2017-08-05T00:20:07.504Z,1009.73
2017-08-05T00:20:48.406Z,1009.72
2017-08-05T00:21:29.291Z,1009.73
2017-08-05T00:22:10.186Z,1009.72
2017-08-05T00:22:51.069Z,1009.71
2017-08-05T00:23:31.969Z,1009.7
2017-08-05T00:24:12.856Z,1009.71
2017-08-05T00:24:53.745Z,1009.74
2017-08-05T00:25:34.646Z,1009.75
2017-08-05T00:26:15.539Z,1009.74
2017-08-05T00:26:56.435Z,1009.75
2017-08-05T00:27:37.314Z,1009.76
2017-08-05T00:28:18.207Z,1009.76
2017-08-05T00:28:59.104Z,1009.75
2017-08-05T00:29:40.043Z,1009.78
2017-08-05T00:30:20.930Z,1009.81
2017-08-05T00:31:01.813Z,1009.79
2017-08-05T00:31:42.717Z,1009.8
2017-08-05T00:32:23.610Z,1009.78
2017-08-05T00:33:04.505Z,1009.77
2017-08-05T00:33:45.404Z,1009.81
2017-08-05T00:34:26.299Z,1009.8
2017-08-05T00:35:07.185Z,1009.78
2017-08-05T00:35:48.083Z,1009.82
2017-08-05T00:36:28.969Z,1009.78
2017-08-05T00:37:09.868Z,1009.79
2017-08-05T00:37:50.769Z,1009.77
2017-08-05T00:38:31.666Z,1009.71
2017-08-05T00:39:12.568Z,1009.76
2017-08-05T00:39:53.451Z,1009.74
2017-08-05T00:40:34.346Z,1009.73
2017-08-05T00:41:15.246Z,1009.71
2017-08-05T00:41:56.138Z,1009.65
2017-08-05T00:42:37.025Z,1009.67
2017-08-05T00:43:17.915Z,1009.68
2017-08-05T00:43:58.819Z,1009.7
2017-08-05T00:44:39.700Z,1009.68
2017-08-05T00:45:20.589Z,1009.67
2017-08-05T00:46:01.479Z,1009.67
2017-08-05T00:46:42.427Z,1009.67
2017-08-05T00:47:23.293Z,1009.67
2017-08-05T00:48:04.180Z,1009.66
2017-08-05T00:48:45.085Z,1009.66
2017-08-05T00:49:25.975Z,1009.65
2017-08-05T00:50:06.870Z,1009.68
2017-08-05T00:50:47.760Z,1009.68
2017-08-05T00:51:28.646Z,1009.69
2017-08-05T00:52:09.578Z,1009.65
2017-08-05T00:52:50.457Z,1009.66
2017-08-05T00:53:31.344Z,1009.7
2017-08-05T00:54:12.235Z,1009.7
2017-08-05T00:54:53.121Z,1009.71
2017-08-05T00:55:34.013Z,1009.72
2017-08-05T00:56:14.906Z,1009.71
2017-08-05T00:56:55.800Z,1009.68
2017-08-05T00:57:36.693Z,1009.68
2017-08-05T00:58:17.581Z,1009.72
2017-08-05T00:58:58.465Z,1009.73
2017-08-05T00:59:39.362Z,1009.69
2017-08-05T01:00:20.267Z,1009.7
2017-08-05T01:01:01.159Z,1009.72
2017-08-05T01:01:42.048Z,1009.72
2017-08-05T01:02:22.941Z,1009.76
2017-08-05T01:03:03.827Z,1009.74
2017-08-05T01:03:44.721Z,1009.77
2017-08-05T01:04:25.619Z,1009.77
2017-08-05T01:05:06.516Z,1009.75
2017-08-05T01:05:47.421Z,1009.73
2017-08-05T01:06:28.312Z,1009.71
2017-08-05T01:07:09.211Z,1009.69
2017-08-05T01:07:50.098Z,1009.7
2017-08-05T01:08:30.992Z,1009.64
2017-08-05T01:09:11.887Z,1009.67
2017-08-05T01:09:52.786Z,1009.67
2017-08-05T01:10:33.675Z,1009.66
2017-08-05T01:11:14.563Z,1009.64
2017-08-05T01:11:55.460Z,1009.68
2017-08-05T01:12:36.345Z,1009.68
2017-08-05T01:13:17.234Z,1009.68
2017-08-05T01:13:58.129Z,1009.74
2017-08-05T01:14:39.022Z,1009.75
2017-08-05T01:15:19.912Z,1009.75
2017-08-05T01:16:00.806Z,1009.77
2017-08-05T01:16:41.699Z,1009.74
2017-08-05T01:17:22.589Z,1009.77
2017-08-05T01:18:03.485Z,1009.78
2017-08-05T01:18:44.381Z,1009.78
2017-08-05T01:19:25.272Z,1009.79
2017-08-05T01:20:06.164Z,1009.8
2017-08-05T01:20:47.053Z,1009.81
2017-08-05T01:21:27.938Z,1009.79
2017-08-05T01:22:08.848Z,1009.81
2017-08-05T01:22:49.743Z,1009.78
2017-08-05T01:23:30.644Z,1009.79
2017-08-05T01:24:11.540Z,1009.81
2017-08-05T01:24:52.432Z,1009.83
2017-08-05T01:25:33.310Z,1009.79
2017-08-05T01:26:14.204Z,1009.82
2017-08-05T01:26:55.096Z,1009.81
2017-08-05T01:27:35.994Z,1009.85
2017-08-05T01:28:16.891Z,1009.83
2017-08-05T01:28:57.780Z,1009.86
2017-08-05T01:29:38.670Z,1009.91
2017-08-05T01:30:19.596Z,1009.86
2017-08-05T01:31:00.485Z,1009.9
2017-08-05T01:31:41.378Z,1009.92
2017-08-05T01:32:22.273Z,1009.89
2017-08-05T01:33:03.160Z,1009.86
2017-08-05T01:33:44.075Z,1009.93
2017-08-05T01:34:24.964Z,1009.93
2017-08-05T01:35:05.857Z,1009.97
2017-08-05T01:35:46.751Z,1009.99
2017-08-05T01:36:27.643Z,1010.01
2017-08-05T01:37:08.537Z,1010.01
2017-08-05T01:37:49.423Z,1010.01
2017-08-05T01:38:30.318Z,1010.03
2017-08-05T01:39:11.218Z,1010.01
2017-08-05T01:39:52.128Z,1010.02
2017-08-05T01:40:33.013Z,1010.05
2017-08-05T01:41:13.906Z,1010.04
2017-08-05T01:41:54.793Z,1010
2017-08-05T01:42:35.687Z,1009.99
2017-08-05T01:43:16.584Z,1010.01
2017-08-05T01:43:57.475Z,1010.08
2017-08-05T01:44:38.392Z,1010.04
2017-08-05T01:45:19.291Z,1010.08
2017-08-05T01:46:00.186Z,1010.09
2017-08-05T01:46:41.081Z,1010.08
2017-08-05T01:47:21.979Z,1010.09
2017-08-05T01:48:02.875Z,1010.06
2017-08-05T01:48:43.759Z,1010.07
2017-08-05T01:49:24.655Z,1010.05
2017-08-05T01:50:05.560Z,1010.02
2017-08-05T01:50:46.452Z,1010.03
2017-08-05T01:51:27.357Z,1009.97
2017-08-05T01:52:08.250Z,1010.04
2017-08-05T01:52:49.141Z,1009.98
2017-08-05T01:53:30.038Z,1010
2017-08-05T01:54:10.925Z,1009.97
2017-08-05T01:54:51.845Z,1009.95
2017-08-05T01:55:32.715Z,1009.98
2017-08-05T01:56:13.604Z,1009.96
2017-08-05T01:56:54.498Z,1010
2017-08-05T01:57:35.392Z,1009.95
2017-08-05T01:58:16.293Z,1009.97
2017-08-05T01:58:57.180Z,1010.03
2017-08-05T01:59:38.077Z,1009.99
2017-08-05T02:00:18.974Z,1009.98
2017-08-05T02:00:59.861Z,1010
2017-08-05T02:01:40.758Z,1010
2017-08-05T02:02:21.642Z,1010
2017-08-05T02:03:02.560Z,1010.02
2017-08-05T02:03:43.447Z,1010.02
2017-08-05T02:04:24.337Z,1010.04
2017-08-05T02:05:05.236Z,1010.07
2017-08-05T02:05:46.130Z,1010.02
2017-08-05T02:06:27.028Z,1010.04
2017-08-05T02:07:07.926Z,1010.06
2017-08-05T02:07:48.816Z,1010.12
2017-08-05T02:08:29.708Z,1010.11
2017-08-05T02:09:10.597Z,1010.12
2017-08-05T02:09:51.492Z,1010.13
2017-08-05T02:10:32.394Z,1010.12
2017-08-05T02:11:13.281Z,1010.1
2017-08-05T02:11:54.186Z,1010.15
2017-08-05T02:12:35.067Z,1010.12
2017-08-05T02:13:15.955Z,1010.13
2017-08-05T02:13:56.858Z,1010.13
2017-08-05T02:14:37.755Z,1010.1
2017-08-05T02:15:18.651Z,1010.15
2017-08-05T02:15:59.539Z,1010.17
2017-08-05T02:16:40.436Z,1010.17
2017-08-05T02:17:21.327Z,1010.2
2017-08-05T02:18:02.220Z,1010.21
2017-08-05T02:18:43.112Z,1010.24
2017-08-05T02:19:23.999Z,1010.22
2017-08-05T02:20:04.886Z,1010.22
2017-08-05T02:20:45.773Z,1010.22
2017-08-05T02:21:26.662Z,1010.22
2017-08-05T02:22:07.553Z,1010.24
2017-08-05T02:22:48.443Z,1010.21
2017-08-05T02:23:29.334Z,1010.24
2017-08-05T02:24:10.229Z,1010.21
2017-08-05T02:24:51.127Z,1010.24
2017-08-05T02:25:32.013Z,1010.29
2017-08-05T02:26:12.907Z,1010.23
2017-08-05T02:26:53.798Z,1010.24
2017-08-05T02:27:34.680Z,1010.23
2017-08-05T02:28:15.598Z,1010.23
2017-08-05T02:28:56.491Z,1010.21
2017-08-05T02:29:37.384Z,1010.23
2017-08-05T02:30:18.295Z,1010.22
2017-08-05T02:30:59.184Z,1010.22
2017-08-05T02:31:40.076Z,1010.24
2017-08-05T02:32:20.973Z,1010.23
2017-08-05T02:33:01.865Z,1010.25
2017-08-05T02:33:42.754Z,1010.27
2017-08-05T02:34:23.645Z,1010.26
2017-08-05T02:35:04.540Z,1010.21
2017-08-05T02:35:45.452Z,1010.2
2017-08-05T02:36:26.349Z,1010.17
2017-08-05T02:37:07.261Z,1010.19
2017-08-05T02:37:48.134Z,1010.16
2017-08-05T02:38:29.026Z,1010.17
2017-08-05T02:39:09.915Z,1010.16
2017-08-05T02:39:50.814Z,1010.19
2017-08-05T02:40:31.704Z,1010.2
2017-08-05T02:41:12.598Z,1010.21
2017-08-05T02:41:53.493Z,1010.24
2017-08-05T02:42:34.385Z,1010.22
2017-08-05T02:43:15.273Z,1010.23
2017-08-05T02:43:56.159Z,1010.23
2017-08-05T02:44:37.057Z,1010.21
2017-08-05T02:45:17.956Z,1010.19
2017-08-05T02:45:58.846Z,1010.16
2017-08-05T02:46:39.741Z,1010.2
2017-08-05T02:47:20.635Z,1010.21
2017-08-05T02:48:01.531Z,1010.2
2017-08-05T02:48:42.428Z,1010.19
2017-08-05T02:49:23.315Z,1010.17
2017-08-05T02:50:04.206Z,1010.14
2017-08-05T02:50:45.099Z,1010.18
2017-08-05T02:51:25.988Z,1010.15
2017-08-05T02:52:06.879Z,1010.18
2017-08-05T02:52:47.766Z,1010.17
2017-08-05T02:53:28.663Z,1010.14
2017-08-05T02:54:09.554Z,1010.18
2017-08-05T02:54:50.458Z,1010.21
2017-08-05T02:55:31.361Z,1010.2
2017-08-05T02:56:12.245Z,1010.19
2017-08-05T02:56:53.140Z,1010.24
2017-08-05T02:57:34.034Z,1010.22
2017-08-05T02:58:14.926Z,1010.21
2017-08-05T02:58:55.816Z,1010.24
2017-08-05T02:59:36.718Z,1010.21
2017-08-05T03:00:17.609Z,1010.22
2017-08-05T03:00:58.508Z,1010.26
2017-08-05T03:01:39.409Z,1010.27
2017-08-05T03:02:20.296Z,1010.26
2017-08-05T03:03:01.194Z,1010.26
2017-08-05T03:03:42.083Z,1010.26
2017-08-05T03:04:22.979Z,1010.3
2017-08-05T03:05:03.876Z,1010.3
2017-08-05T03:05:44.765Z,1010.27
2017-08-05T03:06:25.661Z,1010.28
2017-08-05T03:07:06.555Z,1010.3
2017-08-05T03:07:47.440Z,1010.31
2017-08-05T03:08:28.332Z,1010.28
2017-08-05T03:09:09.230Z,1010.32
2017-08-05T03:09:50.115Z,1010.31
2017-08-05T03:10:31.007Z,1010.33
2017-08-05T03:11:11.908Z,1010.28
2017-08-05T03:11:52.795Z,1010.33
2017-08-05T03:12:33.692Z,1010.26
2017-08-05T03:13:14.587Z,1010.3
2017-08-05T03:13:55.486Z,1010.26
2017-08-05T03:14:36.388Z,1010.3
2017-08-05T03:15:17.282Z,1010.32
2017-08-05T03:15:58.153Z,1010.32
2017-08-05T03:16:39.054Z,1010.33
2017-08-05T03:17:19.957Z,1010.33
2017-08-05T03:18:00.854Z,1010.29
2017-08-05T03:18:41.752Z,1010.28
2017-08-05T03:19:22.642Z,1010.32
2017-08-05T03:20:03.528Z,1010.31
2017-08-05T03:20:44.424Z,1010.3
2017-08-05T03:21:25.321Z,1010.31
2017-08-05T03:22:06.224Z,1010.32
2017-08-05T03:22:47.113Z,1010.35
2017-08-05T03:23:28.006Z,1010.38
2017-08-05T03:24:08.898Z,1010.33
2017-08-05T03:24:49.798Z,1010.35
2017-08-05T03:25:30.668Z,1010.39
2017-08-05T03:26:11.579Z,1010.34
2017-08-05T03:26:52.464Z,1010.38
2017-08-05T03:27:33.344Z,1010.41
2017-08-05T03:28:14.231Z,1010.37
2017-08-05T03:28:55.126Z,1010.42
2017-08-05T03:29:36.015Z,1010.47
2017-08-05T03:30:16.901Z,1010.46
2017-08-05T03:30:57.803Z,1010.48
2017-08-05T03:31:38.721Z,1010.48
2017-08-05T03:32:19.619Z,1010.51
2017-08-05T03:33:00.506Z,1010.54
2017-08-05T03:33:41.410Z,1010.54
2017-08-05T03:34:22.303Z,1010.56
2017-08-05T03:35:03.187Z,1010.55
2017-08-05T03:35:44.086Z,1010.59
2017-08-05T03:36:24.977Z,1010.56
2017-08-05T03:37:05.862Z,1010.55
2017-08-05T03:37:46.757Z,1010.54
2017-08-05T03:38:27.651Z,1010.53
2017-08-05T03:39:08.539Z,1010.49
2017-08-05T03:39:49.416Z,1010.48
2017-08-05T03:40:30.322Z,1010.48
2017-08-05T03:41:11.209Z,1010.45
2017-08-05T03:41:52.092Z,1010.46
2017-08-05T03:42:32.997Z,1010.49
2017-08-05T03:43:13.886Z,1010.47
2017-08-05T03:43:54.764Z,1010.45
2017-08-05T03:44:35.655Z,1010.44
2017-08-05T03:45:16.547Z,1010.4
2017-08-05T03:45:57.421Z,1010.46
2017-08-05T03:46:38.319Z,1010.46
2017-08-05T03:47:19.213Z,1010.48
2017-08-05T03:48:00.097Z,1010.47
2017-08-05T03:48:40.989Z,1010.51
2017-08-05T03:49:21.881Z,1010.51
2017-08-05T03:50:02.774Z,1010.51
2017-08-05T03:50:43.648Z,1010.55
2017-08-05T03:51:24.542Z,1010.53
2017-08-05T03:52:05.442Z,1010.57
2017-08-05T03:52:46.323Z,1010.6
2017-08-05T03:53:27.203Z,1010.59
2017-08-05T03:54:08.110Z,1010.58
2017-08-05T03:54:48.987Z,1010.58
2017-08-05T03:55:29.891Z,1010.61
2017-08-05T03:56:10.798Z,1010.61
2017-08-05T03:56:51.661Z,1010.6
2017-08-05T03:57:32.552Z,1010.64
2017-08-05T03:58:13.458Z,1010.62
2017-08-05T03:58:54.341Z,1010.62
2017-08-05T03:59:35.228Z,1010.62
2017-08-05T04:00:16.124Z,1010.6
2017-08-05T04:00:57.006Z,1010.59
2017-08-05T04:01:37.889Z,1010.62
2017-08-05T04:02:18.778Z,1010.61
2017-08-05T04:02:59.694Z,1010.6
2017-08-05T04:03:40.576Z,1010.59
2017-08-05T04:04:21.485Z,1010.58
2017-08-05T04:05:02.364Z,1010.61
2017-08-05T04:05:43.273Z,1010.61
2017-08-05T04:06:24.191Z,1010.63
2017-08-05T04:07:05.072Z,1010.62
2017-08-05T04:07:45.977Z,1010.6
2017-08-05T04:08:26.857Z,1010.58
2017-08-05T04:09:07.751Z,1010.61
2017-08-05T04:09:48.649Z,1010.62
2017-08-05T04:10:29.534Z,1010.59
2017-08-05T04:11:10.418Z,1010.58
2017-08-05T04:11:51.314Z,1010.6
2017-08-05T04:12:32.204Z,1010.58
2017-08-05T04:13:13.103Z,1010.58
2017-08-05T04:13:53.977Z,1010.56
2017-08-05T04:14:34.882Z,1010.56
2017-08-05T04:15:15.762Z,1010.57
2017-08-05T04:15:56.660Z,1010.59
2017-08-05T04:16:37.555Z,1010.63
2017-08-05T04:17:18.447Z,1010.62
2017-08-05T04:17:59.344Z,1010.63
2017-08-05T04:18:40.233Z,1010.62
2017-08-05T04:19:21.128Z,1010.61
2017-08-05T04:20:02.026Z,1010.6
2017-08-05T04:20:42.913Z,1010.62
2017-08-05T04:21:23.803Z,1010.6
2017-08-05T04:22:04.705Z,1010.56
2017-08-05T04:22:45.589Z,1010.57
2017-08-05T04:23:26.492Z,1010.52
2017-08-05T04:24:07.382Z,1010.58
2017-08-05T04:24:48.268Z,1010.56
2017-08-05T04:25:29.169Z,1010.57
2017-08-05T04:26:10.073Z,1010.55
2017-08-05T04:26:50.953Z,1010.49
2017-08-05T04:27:31.843Z,1010.42
2017-08-05T04:28:12.732Z,1010.42
2017-08-05T04:28:53.632Z,1010.41
2017-08-05T04:29:34.542Z,1010.38
2017-08-05T04:30:15.425Z,1010.44
2017-08-05T04:30:56.314Z,1010.41
2017-08-05T04:31:37.205Z,1010.39
2017-08-05T04:32:18.098Z,1010.36
2017-08-05T04:32:58.982Z,1010.37
2017-08-05T04:33:39.868Z,1010.34
2017-08-05T04:34:20.775Z,1010.34
2017-08-05T04:35:01.659Z,1010.33
2017-08-05T04:35:42.565Z,1010.34
2017-08-05T04:36:23.478Z,1010.33
2017-08-05T04:37:04.389Z,1010.33
2017-08-05T04:37:45.280Z,1010.31
2017-08-05T04:38:26.180Z,1010.28
2017-08-05T04:39:07.075Z,1010.32
2017-08-05T04:39:47.958Z,1010.39
2017-08-05T04:40:28.836Z,1010.39
2017-08-05T04:41:09.733Z,1010.41
2017-08-05T04:41:51.774Z,1010.41
2017-08-05T04:42:32.673Z,1010.42
2017-08-05T04:43:13.563Z,1010.49
2017-08-05T04:43:54.453Z,1010.53
2017-08-05T04:44:35.348Z,1010.52
2017-08-05T04:45:16.285Z,1010.51
2017-08-05T04:45:57.121Z,1010.52
2017-08-05T04:46:38.018Z,1010.54
2017-08-05T04:48:11.282Z,1010.51
2017-08-05T04:48:52.176Z,1010.5
2017-08-05T04:49:33.063Z,1010.51
2017-08-05T04:50:13.962Z,1010.51
2017-08-05T04:50:54.851Z,1010.52
2017-08-05T04:51:35.741Z,1010.55
2017-08-05T04:52:16.625Z,1010.54
2017-08-05T04:52:57.518Z,1010.55
2017-08-05T04:53:38.417Z,1010.57
2017-08-05T04:54:19.304Z,1010.58
2017-08-05T04:55:00.230Z,1010.62
2017-08-05T04:55:41.109Z,1010.62
2017-08-05T04:56:22.001Z,1010.67
2017-08-05T04:57:02.905Z,1010.64
2017-08-05T04:57:43.780Z,1010.64
2017-08-05T04:58:24.653Z,1010.65
2017-08-05T04:59:05.547Z,1010.62
2017-08-05T04:59:46.439Z,1010.61
2017-08-05T05:00:27.320Z,1010.55
2017-08-05T05:01:08.239Z,1010.54
2017-08-05T05:01:49.124Z,1010.55
2017-08-05T05:02:30.009Z,1010.59
2017-08-05T05:03:10.902Z,1010.53
2017-08-05T05:03:51.795Z,1010.53
2017-08-05T05:04:32.754Z,1010.59
2017-08-05T05:05:13.630Z,1010.5
2017-08-05T05:05:54.526Z,1010.49
2017-08-05T05:06:35.414Z,1010.57
2017-08-05T05:07:16.304Z,1010.52
2017-08-05T05:07:57.180Z,1010.54
2017-08-05T05:08:38.083Z,1010.52
2017-08-05T05:09:18.963Z,1010.55
2017-08-05T05:09:59.851Z,1010.56
2017-08-05T05:10:40.753Z,1010.59
2017-08-05T05:11:21.643Z,1010.61
2017-08-05T05:12:02.512Z,1010.58
2017-08-05T05:12:43.401Z,1010.61
2017-08-05T05:13:24.316Z,1010.62
2017-08-05T05:14:05.185Z,1010.59
2017-08-05T05:14:46.064Z,1010.65
2017-08-05T05:15:26.956Z,1010.64
2017-08-05T05:16:07.845Z,1010.63
2017-08-05T05:16:48.720Z,1010.62
2017-08-05T05:17:29.602Z,1010.6
2017-08-05T05:18:10.502Z,1010.65
2017-08-05T05:18:51.392Z,1010.61
2017-08-05T05:19:32.292Z,1010.61
2017-08-05T05:20:13.189Z,1010.6
2017-08-05T05:20:54.069Z,1010.57
2017-08-05T05:21:34.965Z,1010.54
2017-08-05T05:22:15.857Z,1010.56
2017-08-05T05:22:56.736Z,1010.53
2017-08-05T05:23:37.627Z,1010.59
2017-08-05T05:24:18.546Z,1010.56
2017-08-05T05:25:51.787Z,1010.55
2017-08-05T05:26:32.712Z,1010.58
2017-08-05T05:27:13.555Z,1010.55
2017-08-05T05:27:54.419Z,1010.53
2017-08-05T05:28:35.318Z,1010.5
2017-08-05T05:29:16.209Z,1010.51
2017-08-05T05:29:57.097Z,1010.57
2017-08-05T05:30:37.983Z,1010.5
2017-08-05T05:31:18.887Z,1010.58
2017-08-05T05:31:59.761Z,1010.56
2017-08-05T05:32:40.669Z,1010.64
2017-08-05T05:33:21.578Z,1010.61
2017-08-05T05:34:02.471Z,1010.59
2017-08-05T05:34:43.378Z,1010.64
2017-08-05T05:35:24.264Z,1010.61
2017-08-05T05:36:05.134Z,1010.58
2017-08-05T05:36:46.051Z,1010.61
2017-08-05T05:37:26.940Z,1010.61
2017-08-05T05:38:07.810Z,1010.6
2017-08-05T05:38:48.731Z,1010.62
2017-08-05T05:39:29.615Z,1010.67
2017-08-05T05:40:10.467Z,1010.62
2017-08-05T05:40:51.349Z,1010.62
2017-08-05T05:41:32.253Z,1010.68
2017-08-05T05:42:13.169Z,1010.69
2017-08-05T05:42:54.020Z,1010.63
2017-08-05T05:43:34.891Z,1010.67
2017-08-05T05:44:15.800Z,1010.64
2017-08-05T05:44:56.684Z,1010.62
2017-08-05T05:45:37.574Z,1010.66
2017-08-05T05:46:18.470Z,1010.7
2017-08-05T05:46:59.351Z,1010.66
2017-08-05T05:47:40.237Z,1010.7
2017-08-05T05:48:21.138Z,1010.67
2017-08-05T05:49:02.029Z,1010.7
2017-08-05T05:49:42.917Z,1010.67
2017-08-05T05:50:23.812Z,1010.73
2017-08-05T05:51:04.700Z,1010.74
2017-08-05T05:51:45.585Z,1010.71
2017-08-05T05:52:26.475Z,1010.72
2017-08-05T05:53:07.366Z,1010.71
2017-08-05T05:53:48.258Z,1010.76
2017-08-05T05:54:29.185Z,1010.73
2017-08-05T05:55:10.067Z,1010.77
2017-08-05T05:55:50.959Z,1010.78
2017-08-05T05:56:31.858Z,1010.69
2017-08-05T05:57:12.757Z,1010.67
2017-08-05T05:57:53.633Z,1010.65
2017-08-05T05:58:34.563Z,1010.64
2017-08-05T05:59:15.527Z,1010.63
2017-08-05T05:59:56.402Z,1010.68
2017-08-05T06:00:37.302Z,1010.73
2017-08-05T06:01:18.196Z,1010.73
2017-08-05T06:01:59.084Z,1010.7
2017-08-05T06:02:39.980Z,1010.66
2017-08-05T06:03:20.866Z,1010.65
2017-08-05T06:04:01.760Z,1010.64
2017-08-05T06:04:42.655Z,1010.63
2017-08-05T06:05:23.545Z,1010.61
2017-08-05T06:06:04.439Z,1010.62
2017-08-05T06:06:45.354Z,1010.67
2017-08-05T06:07:26.272Z,1010.64
2017-08-05T06:08:07.181Z,1010.64
2017-08-05T06:08:48.695Z,1010.63
2017-08-05T06:09:29.576Z,1010.61
2017-08-05T06:10:10.539Z,1010.61
2017-08-05T06:10:51.428Z,1010.6
2017-08-05T06:11:32.388Z,1010.65
2017-08-05T06:12:13.283Z,1010.67
2017-08-05T06:12:54.201Z,1010.66
2017-08-05T06:13:35.087Z,1010.68
2017-08-05T06:14:15.998Z,1010.71
2017-08-05T06:14:56.888Z,1010.68
2017-08-05T06:15:37.789Z,1010.69
2017-08-05T06:16:18.680Z,1010.69
2017-08-05T06:16:59.573Z,1010.68
2017-08-05T06:17:40.470Z,1010.67
2017-08-05T06:18:21.358Z,1010.67
2017-08-05T06:19:02.245Z,1010.69
2017-08-05T06:19:43.142Z,1010.73
2017-08-05T06:20:24.058Z,1010.67
2017-08-05T06:21:04.962Z,1010.7
2017-08-05T06:21:45.849Z,1010.71
2017-08-05T06:22:26.740Z,1010.71
2017-08-05T06:23:07.640Z,1010.7
2017-08-05T06:23:48.539Z,1010.71
2017-08-05T06:24:29.442Z,1010.67
2017-08-05T06:25:10.354Z,1010.69
2017-08-05T06:25:51.227Z,1010.64
2017-08-05T06:26:32.118Z,1010.66
2017-08-05T06:27:13.156Z,1010.65
2017-08-05T06:27:54.037Z,1010.67
2017-08-05T06:29:27.315Z,1010.66
2017-08-05T06:30:08.214Z,1010.65
2017-08-05T06:30:49.097Z,1010.69
2017-08-05T06:31:29.980Z,1010.67
2017-08-05T06:32:10.882Z,1010.69
2017-08-05T06:32:51.782Z,1010.64
2017-08-05T06:33:32.674Z,1010.69
2017-08-05T06:34:13.579Z,1010.7
2017-08-05T06:34:54.469Z,1010.65
2017-08-05T06:35:35.498Z,1010.62
2017-08-05T06:36:16.309Z,1010.59
2017-08-05T06:36:57.200Z,1010.58
2017-08-05T06:37:38.109Z,1010.59
2017-08-05T06:38:19.011Z,1010.59
2017-08-05T06:38:59.900Z,1010.62
2017-08-05T06:39:40.790Z,1010.64
2017-08-05T06:40:21.690Z,1010.62
2017-08-05T06:41:02.581Z,1010.59
2017-08-05T06:41:43.483Z,1010.57
2017-08-05T06:42:24.382Z,1010.57
2017-08-05T06:43:05.271Z,1010.53
2017-08-05T06:43:46.200Z,1010.55
2017-08-05T06:44:27.093Z,1010.55
2017-08-05T06:45:07.989Z,1010.62
2017-08-05T06:45:48.901Z,1010.61
2017-08-05T06:46:29.775Z,1010.59
2017-08-05T06:47:10.670Z,1010.63
2017-08-05T06:47:51.601Z,1010.62
2017-08-05T06:48:32.498Z,1010.63
2017-08-05T06:49:13.399Z,1010.66
2017-08-05T06:49:54.290Z,1010.64
2017-08-05T06:50:35.190Z,1010.63
2017-08-05T06:51:16.088Z,1010.65
2017-08-05T06:51:56.991Z,1010.59
2017-08-05T06:52:37.890Z,1010.61
2017-08-05T06:53:18.769Z,1010.6
2017-08-05T06:53:59.669Z,1010.61
2017-08-05T06:54:40.566Z,1010.58
2017-08-05T06:55:21.458Z,1010.59
2017-08-05T06:56:02.359Z,1010.6
2017-08-05T06:56:43.245Z,1010.59
2017-08-05T06:57:24.153Z,1010.58
2017-08-05T06:58:05.055Z,1010.55
2017-08-05T06:58:45.955Z,1010.57
2017-08-05T06:59:26.853Z,1010.51
2017-08-05T07:00:07.745Z,1010.54
2017-08-05T07:00:48.650Z,1010.49
2017-08-05T07:01:29.549Z,1010.49
2017-08-05T07:02:10.455Z,1010.43
2017-08-05T07:02:51.354Z,1010.39
2017-08-05T07:03:32.256Z,1010.41
2017-08-05T07:04:13.153Z,1010.41
2017-08-05T07:04:54.054Z,1010.38
2017-08-05T07:05:34.959Z,1010.38
2017-08-05T07:06:15.925Z,1010.39
2017-08-05T07:06:56.825Z,1010.33
2017-08-05T07:07:37.743Z,1010.33
2017-08-05T07:08:18.641Z,1010.39
2017-08-05T07:08:59.545Z,1010.42
2017-08-05T07:09:40.443Z,1010.46
2017-08-05T07:10:21.356Z,1010.48
2017-08-05T07:11:02.264Z,1010.44
2017-08-05T07:11:43.161Z,1010.4
2017-08-05T07:12:24.061Z,1010.34
2017-08-05T07:13:04.957Z,1010.25
2017-08-05T07:13:45.860Z,1010.19
2017-08-05T07:14:26.754Z,1010.21
2017-08-05T07:15:07.658Z,1010.27
2017-08-05T07:15:48.562Z,1010.26
2017-08-05T07:16:29.464Z,1010.34
2017-08-05T07:17:10.368Z,1010.35
2017-08-05T07:17:51.270Z,1010.32
2017-08-05T07:18:32.168Z,1010.34
2017-08-05T07:19:13.068Z,1010.34
2017-08-05T07:19:53.970Z,1010.33
2017-08-05T07:20:34.880Z,1010.36
2017-08-05T07:21:15.786Z,1010.4
2017-08-05T07:21:56.689Z,1010.38
2017-08-05T07:22:37.589Z,1010.38
2017-08-05T07:23:18.489Z,1010.35
2017-08-05T07:23:59.396Z,1010.38
2017-08-05T07:24:40.298Z,1010.41
2017-08-05T07:25:21.208Z,1010.41
2017-08-05T07:26:02.102Z,1010.43
2017-08-05T07:26:43.007Z,1010.42
2017-08-05T07:27:23.920Z,1010.41
2017-08-05T07:28:04.833Z,1010.39
2017-08-05T07:28:45.717Z,1010.41
2017-08-05T07:29:26.623Z,1010.41
2017-08-05T07:30:07.531Z,1010.43
2017-08-05T07:30:48.443Z,1010.42
2017-08-05T07:31:29.347Z,1010.39
2017-08-05T07:32:10.258Z,1010.36
2017-08-05T07:32:51.167Z,1010.31
2017-08-05T07:33:32.075Z,1010.34
2017-08-05T07:34:12.985Z,1010.36
2017-08-05T07:34:53.874Z,1010.33
2017-08-05T07:35:34.780Z,1010.44
2017-08-05T07:36:15.679Z,1010.41
2017-08-05T07:36:56.586Z,1010.43
2017-08-05T07:37:37.483Z,1010.44
2017-08-05T07:38:18.388Z,1010.46
2017-08-05T07:38:59.296Z,1010.43
2017-08-05T07:39:40.200Z,1010.38
2017-08-05T07:40:21.141Z,1010.41
2017-08-05T07:41:02.052Z,1010.36
2017-08-05T07:41:42.964Z,1010.35
2017-08-05T07:42:23.883Z,1010.34
2017-08-05T07:43:04.779Z,1010.38
2017-08-05T07:43:45.728Z,1010.41
2017-08-05T07:44:26.635Z,1010.38
2017-08-05T07:45:07.547Z,1010.4
2017-08-05T07:45:48.451Z,1010.39
2017-08-05T07:46:29.350Z,1010.37
2017-08-05T07:47:10.255Z,1010.45
2017-08-05T07:47:51.169Z,1010.35
2017-08-05T07:48:32.070Z,1010.38
2017-08-05T07:49:12.985Z,1010.36
2017-08-05T07:49:53.893Z,1010.34
2017-08-05T07:50:34.794Z,1010.37
2017-08-05T07:51:15.697Z,1010.39
2017-08-05T07:51:57.498Z,1010.45
2017-08-05T07:52:38.402Z,1010.39
2017-08-05T07:53:19.315Z,1010.38
2017-08-05T07:54:00.224Z,1010.33
2017-08-05T07:54:41.159Z,1010.28
2017-08-05T07:55:22.041Z,1010.27
2017-08-05T07:56:02.946Z,1010.22
2017-08-05T07:56:43.857Z,1010.17
2017-08-05T07:57:24.775Z,1010.03
2017-08-05T07:58:05.678Z,1010.03
2017-08-05T07:58:46.594Z,1010
2017-08-05T07:59:27.504Z,1009.89
2017-08-05T08:00:08.408Z,1009.93
2017-08-05T08:00:49.312Z,1009.99
2017-08-05T08:02:43.060Z,1010.19
2017-08-05T08:03:23.968Z,1010.2
2017-08-05T08:04:04.863Z,1010.16
2017-08-05T08:04:45.770Z,1010.15
2017-08-05T08:05:26.675Z,1010.2
2017-08-05T08:06:07.586Z,1010.13
2017-08-05T08:06:48.500Z,1010.23
2017-08-05T08:07:29.394Z,1010.28
2017-08-05T08:08:10.298Z,1010.27
2017-08-05T08:08:51.241Z,1010.27
2017-08-05T08:09:32.149Z,1010.21
2017-08-05T08:10:13.058Z,1010.17
2017-08-05T08:10:54.475Z,1010.16
2017-08-05T08:11:35.364Z,1010.17
2017-08-05T08:12:16.276Z,1010.17
2017-08-05T08:12:57.180Z,1010.16
2017-08-05T08:13:38.089Z,1010.17
2017-08-05T08:14:18.995Z,1010.25
2017-08-05T08:14:59.901Z,1010.2
2017-08-05T08:15:40.794Z,1010.23
2017-08-05T08:16:21.712Z,1010.22
2017-08-05T08:17:02.631Z,1010.22
2017-08-05T08:17:43.549Z,1010.21
2017-08-05T08:18:24.513Z,1010.2
2017-08-05T08:19:05.363Z,1010.2
2017-08-05T08:19:46.290Z,1010.2
2017-08-05T08:20:27.178Z,1010.21